createdAt,value
2023-02-17T00:08:28.717Z,5.97
2023-02-17T00:13:20.531Z,6.05
2023-02-17T00:18:12.251Z,6.10
2023-02-17T00:23:03.999Z,6.18
2023-02-17T00:27:55.717Z,6.18
2023-02-17T00:32:47.552Z,6.20
2023-02-17T00:37:40.513Z,6.05
2023-02-17T00:42:32.439Z,5.97
2023-02-17T00:47:24.202Z,6.32
2023-02-17T00:52:15.978Z,6.93
2023-02-17T00:57:07.753Z,6.68
2023-02-17T01:01:59.528Z,9.88
2023-02-17T01:06:51.299Z,7.65
2023-02-17T01:11:43.544Z,11.95
2023-02-17T01:16:38.117Z,12.90
2023-02-17T01:21:31.007Z,14.93
2023-02-17T01:26:26.410Z,16.23
2023-02-17T01:31:19.537Z,19.02
2023-02-17T01:36:14.397Z,19.77
2023-02-17T01:41:07.944Z,20.52
2023-02-17T01:46:07.893Z,23.05
2023-02-17T01:51:05.983Z,21.67
2023-02-17T01:55:59.120Z,24.00
2023-02-17T02:00:52.840Z,20.63
2023-02-17T02:05:44.649Z,22.50
2023-02-17T02:10:36.605Z,21.20
2023-02-17T02:16:05.493Z,22.45
2023-02-17T02:21:24.134Z,19.85
2023-02-17T02:26:31.537Z,18.70
2023-02-17T02:31:29.122Z,21.30
2023-02-17T02:36:28.737Z,20.30
2023-02-17T02:41:25.257Z,21.45
2023-02-17T02:46:17.192Z,18.55
2023-02-17T02:51:26.876Z,18.17
2023-02-17T02:56:31.289Z,21.88
2023-02-17T03:01:47.090Z,19.70
2023-02-17T03:06:48.144Z,19.88
2023-02-17T03:11:42.189Z,18.83
2023-02-17T03:16:36.687Z,18.80
2023-02-17T03:21:42.240Z,17.80
2023-02-17T03:26:34.296Z,16.52
2023-02-17T03:31:29.017Z,15.35
2023-02-17T03:36:22.124Z,12.85
2023-02-17T03:41:14.055Z,10.98
2023-02-17T03:46:11.027Z,10.82
2023-02-17T03:51:18.102Z,9.60
2023-02-17T03:56:10.889Z,8.77
2023-02-17T04:01:02.681Z,8.02
2023-02-17T04:05:54.772Z,8.05
2023-02-17T04:10:46.630Z,7.93
2023-02-17T04:15:38.426Z,6.80
2023-02-17T04:20:30.160Z,7.55
2023-02-17T04:25:21.991Z,6.68
2023-02-17T04:30:14.469Z,7.85
2023-02-17T04:35:06.682Z,6.35
2023-02-17T04:39:58.450Z,6.80
2023-02-17T04:44:50.218Z,6.53
2023-02-17T04:49:41.939Z,7.15
2023-02-17T04:54:33.717Z,7.13
2023-02-17T04:59:25.865Z,7.03
2023-02-17T05:04:17.640Z,6.90
2023-02-17T05:09:09.404Z,6.80
2023-02-17T05:14:01.122Z,6.97
2023-02-17T05:18:52.889Z,7.15
2023-02-17T05:23:44.657Z,6.70
2023-02-17T05:28:37.430Z,7.10
2023-02-17T05:33:29.558Z,6.70
2023-02-17T05:38:21.461Z,6.28
2023-02-17T05:43:13.218Z,6.63
2023-02-17T05:48:04.984Z,7.07
2023-02-17T05:52:56.723Z,6.20
2023-02-17T05:57:48.673Z,6.97
2023-02-17T06:02:41.098Z,7.22
2023-02-17T06:07:32.987Z,7.05
2023-02-17T06:12:24.775Z,7.25
2023-02-17T06:17:16.596Z,7.57
2023-02-17T06:22:08.339Z,8.18
2023-02-17T06:27:01.569Z,7.95
2023-02-17T06:31:53.963Z,8.13
2023-02-17T06:36:46.095Z,7.25
2023-02-17T06:41:37.852Z,9.27
2023-02-17T06:46:29.698Z,8.30
2023-02-17T06:51:21.655Z,9.00
2023-02-17T06:56:13.405Z,8.18
2023-02-17T07:01:05.775Z,7.72
2023-02-17T07:06:01.048Z,8.02
2023-02-17T07:10:52.823Z,8.70
2023-02-17T07:15:44.620Z,7.68
2023-02-17T07:20:38.901Z,8.38
2023-02-17T07:25:31.024Z,8.90
2023-02-17T07:30:22.861Z,9.02
2023-02-17T07:35:14.730Z,7.53
2023-02-17T07:40:07.301Z,7.40
2023-02-17T07:44:59.065Z,7.30
2023-02-17T07:49:50.898Z,9.20
2023-02-17T07:54:42.631Z,9.88
2023-02-17T07:59:34.384Z,9.48
2023-02-17T08:04:26.256Z,8.60
2023-02-17T08:09:36.641Z,9.73
2023-02-17T08:14:30.433Z,9.15
2023-02-17T08:19:22.787Z,9.20
2023-02-17T08:24:16.469Z,8.65
2023-02-17T08:29:08.837Z,8.45
2023-02-17T08:34:02.147Z,8.65
2023-02-17T08:38:55.232Z,8.05
2023-02-17T08:43:47.777Z,8.15
2023-02-17T08:48:39.628Z,9.95
2023-02-17T08:53:32.085Z,11.07
2023-02-17T08:58:23.884Z,10.30
2023-02-17T09:03:15.972Z,10.35
2023-02-17T09:08:07.863Z,11.18
2023-02-17T09:12:59.668Z,9.32
2023-02-17T09:17:51.400Z,10.48
2023-02-17T09:22:43.153Z,11.85
2023-02-17T09:27:34.923Z,11.98
2023-02-17T09:32:26.918Z,15.82
2023-02-17T09:37:19.719Z,13.48
2023-02-17T09:42:23.529Z,12.98
2023-02-17T09:47:20.751Z,13.57
2023-02-17T09:52:36.521Z,14.27
2023-02-17T09:57:31.516Z,16.63
2023-02-17T10:02:50.776Z,15.13
2023-02-17T10:12:48.837Z,13.90
2023-02-17T10:17:50.918Z,11.93
2023-02-17T10:22:50.939Z,13.52
2023-02-17T10:27:45.341Z,14.25
2023-02-17T10:32:54.445Z,13.82
2023-02-17T10:37:48.624Z,18.77
2023-02-17T10:42:40.574Z,17.88
2023-02-17T10:47:36.161Z,17.60
2023-02-17T10:52:39.368Z,18.70
2023-02-17T10:57:38.112Z,16.63
2023-02-17T11:02:50.523Z,18.38
2023-02-17T11:07:42.717Z,17.75
2023-02-17T11:12:40.498Z,16.90
2023-02-17T11:17:38.566Z,17.23
2023-02-17T11:22:33.105Z,16.30
2023-02-17T11:27:26.492Z,19.00
2023-02-17T11:32:20.158Z,17.15
2023-02-17T11:37:11.877Z,19.25
2023-02-17T11:42:17.348Z,17.83
2023-02-17T11:47:39.859Z,16.60
2023-02-17T11:52:52.120Z,17.45
2023-02-17T11:58:12.008Z,16.55
2023-02-17T12:03:26.743Z,15.93
2023-02-17T12:08:56.118Z,17.80
2023-02-17T12:13:56.925Z,15.57
2023-02-17T12:19:02.069Z,17.15
2023-02-17T12:24:17.206Z,16.73
2023-02-17T12:29:18.094Z,17.48
2023-02-17T12:34:21.660Z,16.85
2023-02-17T12:39:40.308Z,15.98
2023-02-17T12:44:37.859Z,18.40
2023-02-17T12:49:55.571Z,14.88
2023-02-17T12:54:47.348Z,17.60
2023-02-17T12:59:47.784Z,17.27
2023-02-17T13:04:41.914Z,16.98
2023-02-17T13:09:38.132Z,18.60
2023-02-17T13:14:41.293Z,16.42
2023-02-17T13:19:35.353Z,18.73
2023-02-17T13:24:38.836Z,17.27
2023-02-17T13:29:35.955Z,17.88
2023-02-17T13:34:36.810Z,16.88
2023-02-17T13:39:28.608Z,16.95
2023-02-17T13:44:30.653Z,20.00
2023-02-17T13:49:27.879Z,20.02
2023-02-17T13:54:22.298Z,19.98
2023-02-17T13:59:19.217Z,19.35
2023-02-17T14:04:32.794Z,18.98
2023-02-17T14:09:31.322Z,19.35
2023-02-17T14:19:25.520Z,17.60
2023-02-17T14:24:26.633Z,18.13
2023-02-17T14:29:18.380Z,19.95
2023-02-17T14:34:25.158Z,18.42
2023-02-17T14:39:16.978Z,16.55
2023-02-17T14:44:08.764Z,20.00
2023-02-17T14:49:00.598Z,17.30
2023-02-17T14:53:53.168Z,17.48
2023-02-17T14:58:45.070Z,18.40
2023-02-17T15:03:36.857Z,19.48
2023-02-17T15:08:34.027Z,18.33
2023-02-17T15:13:26.577Z,19.42
2023-02-17T15:18:19.822Z,21.20
2023-02-17T15:23:14.109Z,21.73
2023-02-17T15:28:06.302Z,18.50
2023-02-17T15:32:58.291Z,17.88
2023-02-17T15:37:50.771Z,18.63
2023-02-17T15:42:44.101Z,19.55
2023-02-17T15:47:35.978Z,19.15
2023-02-17T15:52:27.721Z,18.05
2023-02-17T15:57:23.505Z,17.75
2023-02-17T16:02:22.384Z,17.35
2023-02-17T16:07:14.712Z,18.23
2023-02-17T16:12:15.912Z,16.60
2023-02-17T16:17:14.521Z,15.75
2023-02-17T16:26:58.295Z,16.27
2023-02-17T16:31:50.296Z,16.73
2023-02-17T16:36:42.285Z,20.70
2023-02-17T16:41:34.011Z,16.65
2023-02-17T16:46:32.073Z,18.27
2023-02-17T16:51:23.948Z,18.63
2023-02-17T16:56:24.429Z,17.10
2023-02-17T17:01:16.225Z,21.58
2023-02-17T17:06:25.561Z,18.45
2023-02-17T17:11:21.678Z,18.80
2023-02-17T17:16:21.176Z,19.67
2023-02-17T17:21:15.407Z,18.05
2023-02-17T17:26:28.361Z,16.88
2023-02-17T17:31:21.389Z,19.20
2023-02-17T17:36:21.106Z,15.88
2023-02-17T17:41:13.992Z,21.13
2023-02-17T17:46:13.013Z,17.45
2023-02-17T17:51:04.906Z,17.40
2023-02-17T17:55:56.758Z,19.23
2023-02-17T18:00:48.510Z,18.98
2023-02-17T18:05:40.492Z,18.50
2023-02-17T18:10:32.818Z,18.27
2023-02-17T18:15:25.527Z,21.13
2023-02-17T18:20:17.583Z,19.42
2023-02-17T18:25:10.197Z,18.90
2023-02-17T18:30:02.042Z,20.88
2023-02-17T18:34:57.174Z,22.65
2023-02-17T18:45:09.652Z,26.33
2023-02-17T18:50:01.427Z,25.85
2023-02-17T18:54:53.179Z,23.90
2023-02-17T18:59:45.043Z,24.00
2023-02-17T19:04:37.097Z,21.63
2023-02-17T19:09:37.800Z,22.25
2023-02-17T19:14:33.652Z,20.33
2023-02-17T19:19:25.794Z,20.75
2023-02-17T19:24:17.613Z,20.45
2023-02-17T19:29:09.754Z,20.73
2023-02-17T19:34:01.532Z,21.52
2023-02-17T19:38:56.721Z,23.90
2023-02-17T19:43:49.208Z,21.33
2023-02-17T19:48:41.383Z,20.73
2023-02-17T19:53:33.912Z,16.98
2023-02-17T19:58:25.783Z,17.00
2023-02-17T20:03:17.558Z,14.25
2023-02-17T20:08:09.287Z,12.45
2023-02-17T20:13:01.085Z,12.20
2023-02-17T20:17:52.796Z,10.18
2023-02-17T20:22:44.501Z,10.57
2023-02-17T20:27:36.326Z,10.55
2023-02-17T20:32:28.465Z,12.50
2023-02-17T20:37:20.280Z,12.52
2023-02-17T20:42:12.086Z,14.65
2023-02-17T20:47:03.996Z,12.65
2023-02-17T20:51:55.861Z,13.18
2023-02-17T20:56:48.573Z,12.43
2023-02-17T21:01:41.831Z,11.60
2023-02-17T21:06:38.187Z,11.88
2023-02-17T21:11:30.434Z,10.80
2023-02-17T21:16:26.289Z,10.77
2023-02-17T21:21:18.215Z,13.65
2023-02-17T21:26:11.726Z,11.27
2023-02-17T21:31:04.438Z,10.05
2023-02-17T21:35:56.397Z,10.13
2023-02-17T21:40:50.087Z,9.05
2023-02-17T21:45:44.757Z,9.77
2023-02-17T21:50:36.526Z,8.95
2023-02-17T21:55:28.270Z,9.60
2023-02-17T22:00:20.274Z,8.45
2023-02-17T22:05:12.210Z,8.15
2023-02-17T22:10:05.793Z,8.73
2023-02-17T22:14:57.689Z,8.32
2023-02-17T22:19:49.484Z,9.20
2023-02-17T22:24:41.261Z,9.10
2023-02-17T22:29:33.011Z,8.98
2023-02-17T22:34:26.255Z,8.68
2023-02-17T22:39:18.037Z,8.70
2023-02-17T22:44:09.833Z,8.70
2023-02-17T22:49:01.881Z,9.55
2023-02-17T22:53:53.663Z,8.20
2023-02-17T22:58:45.417Z,8.02
2023-02-17T23:03:37.811Z,7.38
2023-02-17T23:08:29.802Z,8.15
2023-02-17T23:13:21.670Z,8.23
2023-02-17T23:18:17.447Z,7.38
2023-02-17T23:23:09.589Z,7.53
2023-02-17T23:28:01.765Z,7.72
2023-02-17T23:32:53.675Z,7.55
2023-02-17T23:37:45.430Z,7.97
2023-02-17T23:42:37.429Z,7.13
2023-02-17T23:47:29.176Z,7.38
2023-02-17T23:52:20.934Z,7.78
2023-02-17T23:57:12.659Z,7.07
